sensor_id;sensor_type;location;lat;lon;timestamp;P1;durP1;ratioP1;P2;durP2;ratioP2
45792;SDS011;31495;42.740;22.908;2023-09-19T00:00:57;7.82;;;5.03;;
45792;SDS011;31495;42.740;22.908;2023-09-19T00:01:57;8.10;;;5.22;;
45792;SDS011;31495;42.740;22.908;2023-09-19T00:02:58;6.03;;;4.38;;
45792;SDS011;31495;42.740;22.908;2023-09-19T00:04:01;6.38;;;4.70;;
45792;SDS011;31495;42.740;22.908;2023-09-19T00:05:01;6.47;;;5.25;;
45792;SDS011;31495;42.740;22.908;2023-09-19T00:06:01;13.13;;;6.10;;
45792;SDS011;31495;42.740;22.908;2023-09-19T00:07:01;11.27;;;5.93;;
45792;SDS011;31495;42.740;22.908;2023-09-19T00:08:03;6.65;;;4.90;;
45792;SDS011;31495;42.740;22.908;2023-09-19T00:09:03;8.80;;;5.53;;
45792;SDS011;31495;42.740;22.908;2023-09-19T00:10:03;8.32;;;5.10;;
45792;SDS011;31495;42.740;22.908;2023-09-19T00:11:04;7.35;;;5.28;;
45792;SDS011;31495;42.740;22.908;2023-09-19T00:12:05;7.85;;;5.18;;
45792;SDS011;31495;42.740;22.908;2023-09-19T00:13:06;10.48;;;5.40;;
45792;SDS011;31495;42.740;22.908;2023-09-19T00:14:06;7.88;;;5.00;;
45792;SDS011;31495;42.740;22.908;2023-09-19T00:16:09;6.95;;;4.22;;
45792;SDS011;31495;42.740;22.908;2023-09-19T00:17:10;6.30;;;4.55;;
45792;SDS011;31495;42.740;22.908;2023-09-19T00:18:09;10.20;;;4.72;;
45792;SDS011;31495;42.740;22.908;2023-09-19T00:19:08;9.07;;;5.53;;
45792;SDS011;31495;42.740;22.908;2023-09-19T00:20:08;9.68;;;5.38;;
45792;SDS011;31495;42.740;22.908;2023-09-19T00:21:11;8.98;;;5.35;;
45792;SDS011;31495;42.740;22.908;2023-09-19T00:22:11;6.82;;;5.05;;
45792;SDS011;31495;42.740;22.908;2023-09-19T00:23:12;6.95;;;4.90;;
45792;SDS011;31495;42.740;22.908;2023-09-19T00:24:11;6.55;;;5.13;;
45792;SDS011;31495;42.740;22.908;2023-09-19T00:25:11;6.63;;;4.63;;
45792;SDS011;31495;42.740;22.908;2023-09-19T00:26:11;7.55;;;4.85;;
45792;SDS011;31495;42.740;22.908;2023-09-19T00:27:11;12.45;;;5.35;;
45792;SDS011;31495;42.740;22.908;2023-09-19T00:28:11;7.10;;;4.80;;
45792;SDS011;31495;42.740;22.908;2023-09-19T00:29:11;8.57;;;5.65;;
45792;SDS011;31495;42.740;22.908;2023-09-19T00:30:10;9.07;;;5.05;;
45792;SDS011;31495;42.740;22.908;2023-09-19T00:31:18;12.15;;;5.18;;
45792;SDS011;31495;42.740;22.908;2023-09-19T00:32:18;5.70;;;4.55;;
45792;SDS011;31495;42.740;22.908;2023-09-19T00:33:17;6.75;;;5.05;;
45792;SDS011;31495;42.740;22.908;2023-09-19T00:34:18;7.50;;;4.72;;
45792;SDS011;31495;42.740;22.908;2023-09-19T00:35:17;5.78;;;4.82;;
45792;SDS011;31495;42.740;22.908;2023-09-19T00:36:18;7.10;;;5.50;;
45792;SDS011;31495;42.740;22.908;2023-09-19T00:37:17;6.88;;;4.80;;
45792;SDS011;31495;42.740;22.908;2023-09-19T00:38:18;6.82;;;4.95;;
45792;SDS011;31495;42.740;22.908;2023-09-19T00:39:21;9.00;;;5.20;;
45792;SDS011;31495;42.740;22.908;2023-09-19T00:40:21;6.75;;;4.95;;
45792;SDS011;31495;42.740;22.908;2023-09-19T00:41:20;8.38;;;5.55;;
45792;SDS011;31495;42.740;22.908;2023-09-19T00:42:20;6.82;;;4.28;;
45792;SDS011;31495;42.740;22.908;2023-09-19T00:43:20;7.05;;;5.40;;
45792;SDS011;31495;42.740;22.908;2023-09-19T00:44:20;8.40;;;4.82;;
45792;SDS011;31495;42.740;22.908;2023-09-19T00:45:22;6.90;;;5.18;;
45792;SDS011;31495;42.740;22.908;2023-09-19T00:46:23;6.25;;;4.90;;
45792;SDS011;31495;42.740;22.908;2023-09-19T00:47:23;12.82;;;4.72;;
45792;SDS011;31495;42.740;22.908;2023-09-19T00:48:22;5.65;;;4.45;;
45792;SDS011;31495;42.740;22.908;2023-09-19T00:49:26;7.25;;;4.80;;
45792;SDS011;31495;42.740;22.908;2023-09-19T00:50:27;9.15;;;4.95;;
45792;SDS011;31495;42.740;22.908;2023-09-19T00:51:27;6.50;;;4.70;;
45792;SDS011;31495;42.740;22.908;2023-09-19T00:52:27;6.32;;;4.25;;
45792;SDS011;31495;42.740;22.908;2023-09-19T00:53:26;8.15;;;4.72;;
45792;SDS011;31495;42.740;22.908;2023-09-19T00:54:26;10.75;;;4.75;;
45792;SDS011;31495;42.740;22.908;2023-09-19T00:55:28;7.50;;;4.93;;
45792;SDS011;31495;42.740;22.908;2023-09-19T00:56:29;10.90;;;5.47;;
45792;SDS011;31495;42.740;22.908;2023-09-19T00:57:29;9.75;;;5.45;;
45792;SDS011;31495;42.740;22.908;2023-09-19T00:58:32;8.63;;;4.95;;
45792;SDS011;31495;42.740;22.908;2023-09-19T00:59:33;7.93;;;4.60;;
45792;SDS011;31495;42.740;22.908;2023-09-19T01:01:34;11.65;;;5.72;;
45792;SDS011;31495;42.740;22.908;2023-09-19T01:02:34;5.28;;;4.53;;
45792;SDS011;31495;42.740;22.908;2023-09-19T01:03:34;7.13;;;4.63;;
45792;SDS011;31495;42.740;22.908;2023-09-19T01:04:35;8.30;;;4.65;;
45792;SDS011;31495;42.740;22.908;2023-09-19T01:05:35;8.20;;;4.68;;
45792;SDS011;31495;42.740;22.908;2023-09-19T01:06:35;6.78;;;4.45;;
45792;SDS011;31495;42.740;22.908;2023-09-19T01:07:36;10.48;;;4.68;;
45792;SDS011;31495;42.740;22.908;2023-09-19T01:08:39;8.55;;;4.43;;
45792;SDS011;31495;42.740;22.908;2023-09-19T01:09:39;6.55;;;4.80;;
45792;SDS011;31495;42.740;22.908;2023-09-19T01:10:41;6.57;;;4.20;;
45792;SDS011;31495;42.740;22.908;2023-09-19T01:11:46;7.13;;;5.00;;
45792;SDS011;31495;42.740;22.908;2023-09-19T01:17:42;5.35;;;4.22;;
45792;SDS011;31495;42.740;22.908;2023-09-19T01:19:06;7.20;;;4.97;;
45792;SDS011;31495;42.740;22.908;2023-09-19T01:23:21;7.95;;;4.15;;
45792;SDS011;31495;42.740;22.908;2023-09-19T01:24:42;8.02;;;5.00;;
45792;SDS011;31495;42.740;22.908;2023-09-19T01:25:50;6.70;;;4.78;;
45792;SDS011;31495;42.740;22.908;2023-09-19T01:27:16;9.02;;;3.95;;
45792;SDS011;31495;42.740;22.908;2023-09-19T01:29:46;7.20;;;4.80;;
45792;SDS011;31495;42.740;22.908;2023-09-19T01:30:48;5.90;;;4.15;;
45792;SDS011;31495;42.740;22.908;2023-09-19T01:32:06;9.73;;;4.93;;
45792;SDS011;31495;42.740;22.908;2023-09-19T01:33:12;7.15;;;4.88;;
45792;SDS011;31495;42.740;22.908;2023-09-19T01:34:13;8.25;;;5.00;;
45792;SDS011;31495;42.740;22.908;2023-09-19T01:35:13;7.70;;;4.55;;
45792;SDS011;31495;42.740;22.908;2023-09-19T01:36:12;6.32;;;4.25;;
45792;SDS011;31495;42.740;22.908;2023-09-19T01:37:12;10.32;;;4.22;;
45792;SDS011;31495;42.740;22.908;2023-09-19T01:38:13;10.30;;;5.10;;
45792;SDS011;31495;42.740;22.908;2023-09-19T01:39:14;6.85;;;4.93;;
45792;SDS011;31495;42.740;22.908;2023-09-19T01:40:15;10.45;;;5.28;;
45792;SDS011;31495;42.740;22.908;2023-09-19T01:41:20;5.15;;;4.18;;
45792;SDS011;31495;42.740;22.908;2023-09-19T01:42:35;8.43;;;4.80;;
45792;SDS011;31495;42.740;22.908;2023-09-19T01:43:37;7.13;;;4.20;;
45792;SDS011;31495;42.740;22.908;2023-09-19T01:47:28;8.90;;;4.93;;
45792;SDS011;31495;42.740;22.908;2023-09-19T01:49:41;10.07;;;5.20;;
45792;SDS011;31495;42.740;22.908;2023-09-19T01:50:52;7.50;;;5.15;;
45792;SDS011;31495;42.740;22.908;2023-09-19T01:52:59;12.43;;;5.60;;
45792;SDS011;31495;42.740;22.908;2023-09-19T01:54:12;8.68;;;5.30;;
45792;SDS011;31495;42.740;22.908;2023-09-19T01:55:17;7.57;;;5.05;;
45792;SDS011;31495;42.740;22.908;2023-09-19T01:56:22;7.90;;;5.25;;
45792;SDS011;31495;42.740;22.908;2023-09-19T01:57:29;7.70;;;4.35;;
45792;SDS011;31495;42.740;22.908;2023-09-19T01:58:44;7.78;;;4.68;;
45792;SDS011;31495;42.740;22.908;2023-09-19T01:59:48;6.85;;;4.90;;
45792;SDS011;31495;42.740;22.908;2023-09-19T02:00:53;8.85;;;5.13;;
45792;SDS011;31495;42.740;22.908;2023-09-19T02:01:57;6.47;;;4.95;;
45792;SDS011;31495;42.740;22.908;2023-09-19T02:02:58;6.78;;;4.82;;
45792;SDS011;31495;42.740;22.908;2023-09-19T02:03:59;6.80;;;4.97;;
45792;SDS011;31495;42.740;22.908;2023-09-19T02:04:58;7.63;;;4.78;;
45792;SDS011;31495;42.740;22.908;2023-09-19T02:05:58;6.55;;;4.30;;
45792;SDS011;31495;42.740;22.908;2023-09-19T02:06:57;10.43;;;4.75;;
45792;SDS011;31495;42.740;22.908;2023-09-19T02:07:57;7.97;;;4.85;;
45792;SDS011;31495;42.740;22.908;2023-09-19T02:08:57;7.40;;;5.28;;
45792;SDS011;31495;42.740;22.908;2023-09-19T02:09:58;6.50;;;5.00;;
45792;SDS011;31495;42.740;22.908;2023-09-19T02:11:04;7.03;;;4.47;;
45792;SDS011;31495;42.740;22.908;2023-09-19T02:12:05;5.95;;;4.70;;
45792;SDS011;31495;42.740;22.908;2023-09-19T02:13:05;6.50;;;4.78;;
45792;SDS011;31495;42.740;22.908;2023-09-19T02:14:04;5.63;;;4.47;;
45792;SDS011;31495;42.740;22.908;2023-09-19T02:15:07;6.82;;;5.05;;
45792;SDS011;31495;42.740;22.908;2023-09-19T02:16:08;10.18;;;4.97;;
45792;SDS011;31495;42.740;22.908;2023-09-19T02:17:10;7.55;;;4.57;;
45792;SDS011;31495;42.740;22.908;2023-09-19T02:18:12;8.10;;;4.97;;
45792;SDS011;31495;42.740;22.908;2023-09-19T02:19:12;6.07;;;4.53;;
45792;SDS011;31495;42.740;22.908;2023-09-19T02:20:12;14.65;;;5.35;;
45792;SDS011;31495;42.740;22.908;2023-09-19T02:21:13;7.65;;;4.55;;
45792;SDS011;31495;42.740;22.908;2023-09-19T02:22:13;10.75;;;4.60;;
45792;SDS011;31495;42.740;22.908;2023-09-19T02:23:13;7.75;;;4.65;;
45792;SDS011;31495;42.740;22.908;2023-09-19T02:24:15;9.68;;;5.00;;
45792;SDS011;31495;42.740;22.908;2023-09-19T02:25:15;9.63;;;5.07;;
45792;SDS011;31495;42.740;22.908;2023-09-19T02:26:14;9.02;;;5.00;;
45792;SDS011;31495;42.740;22.908;2023-09-19T02:27:14;7.18;;;5.22;;
45792;SDS011;31495;42.740;22.908;2023-09-19T02:28:15;8.80;;;5.75;;
45792;SDS011;31495;42.740;22.908;2023-09-19T02:29:14;9.23;;;5.03;;
45792;SDS011;31495;42.740;22.908;2023-09-19T02:30:14;8.80;;;4.53;;
45792;SDS011;31495;42.740;22.908;2023-09-19T02:31:15;5.78;;;4.05;;
45792;SDS011;31495;42.740;22.908;2023-09-19T02:32:15;7.38;;;4.80;;
45792;SDS011;31495;42.740;22.908;2023-09-19T02:33:17;6.32;;;4.25;;
45792;SDS011;31495;42.740;22.908;2023-09-19T02:34:17;7.15;;;5.10;;
45792;SDS011;31495;42.740;22.908;2023-09-19T02:35:16;9.32;;;5.07;;
45792;SDS011;31495;42.740;22.908;2023-09-19T02:36:19;6.38;;;5.03;;
45792;SDS011;31495;42.740;22.908;2023-09-19T02:37:18;9.40;;;5.05;;
45792;SDS011;31495;42.740;22.908;2023-09-19T02:38:19;7.25;;;4.05;;
45792;SDS011;31495;42.740;22.908;2023-09-19T02:39:23;9.55;;;4.30;;
45792;SDS011;31495;42.740;22.908;2023-09-19T02:40:23;7.18;;;4.45;;
45792;SDS011;31495;42.740;22.908;2023-09-19T02:42:24;8.27;;;5.07;;
45792;SDS011;31495;42.740;22.908;2023-09-19T02:43:23;8.40;;;4.60;;
45792;SDS011;31495;42.740;22.908;2023-09-19T02:44:23;7.07;;;5.55;;
45792;SDS011;31495;42.740;22.908;2023-09-19T02:45:23;7.88;;;4.43;;
45792;SDS011;31495;42.740;22.908;2023-09-19T02:46:23;10.38;;;5.32;;
45792;SDS011;31495;42.740;22.908;2023-09-19T02:47:22;7.90;;;4.68;;
45792;SDS011;31495;42.740;22.908;2023-09-19T02:48:21;6.82;;;4.93;;
45792;SDS011;31495;42.740;22.908;2023-09-19T02:49:21;8.90;;;4.35;;
45792;SDS011;31495;42.740;22.908;2023-09-19T02:50:21;5.50;;;4.07;;
45792;SDS011;31495;42.740;22.908;2023-09-19T02:51:21;7.35;;;4.13;;
45792;SDS011;31495;42.740;22.908;2023-09-19T02:52:20;9.80;;;4.72;;
45792;SDS011;31495;42.740;22.908;2023-09-19T02:53:20;6.18;;;4.28;;
45792;SDS011;31495;42.740;22.908;2023-09-19T02:54:20;6.57;;;4.30;;
45792;SDS011;31495;42.740;22.908;2023-09-19T02:55:20;9.60;;;4.60;;
45792;SDS011;31495;42.740;22.908;2023-09-19T02:56:21;8.07;;;5.38;;
45792;SDS011;31495;42.740;22.908;2023-09-19T02:57:21;7.05;;;5.03;;
45792;SDS011;31495;42.740;22.908;2023-09-19T02:58:23;7.38;;;5.03;;
45792;SDS011;31495;42.740;22.908;2023-09-19T03:00:24;8.48;;;5.15;;
45792;SDS011;31495;42.740;22.908;2023-09-19T03:01:23;6.75;;;4.88;;
45792;SDS011;31495;42.740;22.908;2023-09-19T03:02:23;5.40;;;4.18;;
45792;SDS011;31495;42.740;22.908;2023-09-19T03:03:24;6.90;;;4.63;;
45792;SDS011;31495;42.740;22.908;2023-09-19T03:04:23;8.77;;;4.53;;
45792;SDS011;31495;42.740;22.908;2023-09-19T03:05:23;9.73;;;5.20;;
45792;SDS011;31495;42.740;22.908;2023-09-19T03:06:23;7.95;;;4.97;;
45792;SDS011;31495;42.740;22.908;2023-09-19T03:07:23;7.10;;;4.93;;
45792;SDS011;31495;42.740;22.908;2023-09-19T03:08:24;8.10;;;5.53;;
45792;SDS011;31495;42.740;22.908;2023-09-19T03:09:24;6.88;;;5.22;;
45792;SDS011;31495;42.740;22.908;2023-09-19T03:10:23;8.82;;;5.57;;
45792;SDS011;31495;42.740;22.908;2023-09-19T03:11:23;6.00;;;4.35;;
45792;SDS011;31495;42.740;22.908;2023-09-19T03:12:24;6.22;;;4.85;;
45792;SDS011;31495;42.740;22.908;2023-09-19T03:13:24;11.02;;;5.80;;
45792;SDS011;31495;42.740;22.908;2023-09-19T03:14:24;8.23;;;5.35;;
45792;SDS011;31495;42.740;22.908;2023-09-19T03:15:24;8.07;;;5.45;;
45792;SDS011;31495;42.740;22.908;2023-09-19T03:16:23;7.38;;;5.07;;
45792;SDS011;31495;42.740;22.908;2023-09-19T03:17:24;8.73;;;5.35;;
45792;SDS011;31495;42.740;22.908;2023-09-19T03:18:24;7.65;;;4.85;;
45792;SDS011;31495;42.740;22.908;2023-09-19T03:19:25;6.78;;;5.22;;
45792;SDS011;31495;42.740;22.908;2023-09-19T03:20:25;8.35;;;5.20;;
45792;SDS011;31495;42.740;22.908;2023-09-19T03:21:26;9.43;;;4.80;;
45792;SDS011;31495;42.740;22.908;2023-09-19T03:22:27;8.10;;;5.43;;
45792;SDS011;31495;42.740;22.908;2023-09-19T03:23:27;7.10;;;4.38;;
45792;SDS011;31495;42.740;22.908;2023-09-19T03:24:28;6.15;;;4.65;;
45792;SDS011;31495;42.740;22.908;2023-09-19T03:25:28;7.60;;;4.90;;
45792;SDS011;31495;42.740;22.908;2023-09-19T03:26:27;10.45;;;4.63;;
45792;SDS011;31495;42.740;22.908;2023-09-19T03:27:27;7.70;;;5.25;;
45792;SDS011;31495;42.740;22.908;2023-09-19T03:28:26;5.57;;;4.47;;
45792;SDS011;31495;42.740;22.908;2023-09-19T03:29:27;6.80;;;5.13;;
45792;SDS011;31495;42.740;22.908;2023-09-19T03:30:26;7.38;;;4.15;;
45792;SDS011;31495;42.740;22.908;2023-09-19T03:31:26;8.27;;;5.07;;
45792;SDS011;31495;42.740;22.908;2023-09-19T03:32:25;7.65;;;4.45;;
45792;SDS011;31495;42.740;22.908;2023-09-19T03:33:25;8.98;;;5.00;;
45792;SDS011;31495;42.740;22.908;2023-09-19T03:34:25;6.55;;;4.63;;
45792;SDS011;31495;42.740;22.908;2023-09-19T03:35:24;6.50;;;4.47;;
45792;SDS011;31495;42.740;22.908;2023-09-19T03:36:24;5.78;;;4.82;;
45792;SDS011;31495;42.740;22.908;2023-09-19T03:37:23;10.00;;;5.13;;
45792;SDS011;31495;42.740;22.908;2023-09-19T03:38:23;6.07;;;4.57;;
45792;SDS011;31495;42.740;22.908;2023-09-19T03:39:23;8.52;;;5.45;;
45792;SDS011;31495;42.740;22.908;2023-09-19T03:40:22;8.13;;;5.30;;
45792;SDS011;31495;42.740;22.908;2023-09-19T03:41:23;6.28;;;4.85;;
45792;SDS011;31495;42.740;22.908;2023-09-19T03:42:22;15.15;;;5.28;;
45792;SDS011;31495;42.740;22.908;2023-09-19T03:43:24;8.75;;;5.10;;
45792;SDS011;31495;42.740;22.908;2023-09-19T03:44:24;6.35;;;4.88;;
45792;SDS011;31495;42.740;22.908;2023-09-19T03:45:23;10.88;;;4.70;;
45792;SDS011;31495;42.740;22.908;2023-09-19T03:46:23;6.65;;;4.68;;
45792;SDS011;31495;42.740;22.908;2023-09-19T03:47:24;10.90;;;5.13;;
45792;SDS011;31495;42.740;22.908;2023-09-19T03:48:23;8.88;;;5.25;;
45792;SDS011;31495;42.740;22.908;2023-09-19T03:49:22;14.30;;;5.47;;
45792;SDS011;31495;42.740;22.908;2023-09-19T03:50:22;7.25;;;4.80;;
45792;SDS011;31495;42.740;22.908;2023-09-19T03:51:22;6.13;;;4.80;;
45792;SDS011;31495;42.740;22.908;2023-09-19T03:52:21;6.88;;;4.63;;
45792;SDS011;31495;42.740;22.908;2023-09-19T03:53:21;7.63;;;5.20;;
45792;SDS011;31495;42.740;22.908;2023-09-19T03:54:20;14.25;;;5.97;;
45792;SDS011;31495;42.740;22.908;2023-09-19T03:55:20;9.57;;;5.05;;
45792;SDS011;31495;42.740;22.908;2023-09-19T03:56:19;6.68;;;4.78;;
45792;SDS011;31495;42.740;22.908;2023-09-19T03:57:18;10.30;;;5.20;;
45792;SDS011;31495;42.740;22.908;2023-09-19T03:58:19;9.38;;;5.60;;
45792;SDS011;31495;42.740;22.908;2023-09-19T03:59:19;6.55;;;4.88;;
45792;SDS011;31495;42.740;22.908;2023-09-19T04:00:19;7.40;;;5.15;;
45792;SDS011;31495;42.740;22.908;2023-09-19T04:01:20;7.30;;;5.63;;
45792;SDS011;31495;42.740;22.908;2023-09-19T04:02:21;7.05;;;5.20;;
45792;SDS011;31495;42.740;22.908;2023-09-19T04:03:21;7.53;;;5.65;;
45792;SDS011;31495;42.740;22.908;2023-09-19T04:04:20;6.82;;;5.07;;
45792;SDS011;31495;42.740;22.908;2023-09-19T04:05:20;8.65;;;5.55;;
45792;SDS011;31495;42.740;22.908;2023-09-19T04:06:19;10.05;;;6.22;;
45792;SDS011;31495;42.740;22.908;2023-09-19T04:07:18;8.65;;;5.45;;
45792;SDS011;31495;42.740;22.908;2023-09-19T04:08:21;6.70;;;5.40;;
45792;SDS011;31495;42.740;22.908;2023-09-19T04:09:20;8.60;;;5.93;;
45792;SDS011;31495;42.740;22.908;2023-09-19T04:10:20;11.10;;;5.20;;
45792;SDS011;31495;42.740;22.908;2023-09-19T04:11:20;10.88;;;6.07;;
45792;SDS011;31495;42.740;22.908;2023-09-19T04:12:20;6.88;;;5.38;;
45792;SDS011;31495;42.740;22.908;2023-09-19T04:13:19;9.80;;;5.93;;
45792;SDS011;31495;42.740;22.908;2023-09-19T04:14:19;9.20;;;6.32;;
45792;SDS011;31495;42.740;22.908;2023-09-19T04:15:18;10.52;;;6.10;;
45792;SDS011;31495;42.740;22.908;2023-09-19T04:16:18;10.93;;;6.07;;
45792;SDS011;31495;42.740;22.908;2023-09-19T04:17:18;9.80;;;6.03;;
45792;SDS011;31495;42.740;22.908;2023-09-19T04:18:17;9.70;;;5.15;;
45792;SDS011;31495;42.740;22.908;2023-09-19T04:19:17;9.68;;;6.10;;
45792;SDS011;31495;42.740;22.908;2023-09-19T04:20:18;9.20;;;5.90;;
45792;SDS011;31495;42.740;22.908;2023-09-19T04:21:22;8.07;;;5.90;;
45792;SDS011;31495;42.740;22.908;2023-09-19T04:22:21;10.23;;;6.75;;
45792;SDS011;31495;42.740;22.908;2023-09-19T04:23:21;8.25;;;5.90;;
45792;SDS011;31495;42.740;22.908;2023-09-19T04:24:20;8.45;;;5.97;;
45792;SDS011;31495;42.740;22.908;2023-09-19T04:25:20;7.40;;;5.90;;
45792;SDS011;31495;42.740;22.908;2023-09-19T04:26:20;11.25;;;6.50;;
45792;SDS011;31495;42.740;22.908;2023-09-19T04:27:21;11.45;;;5.55;;
45792;SDS011;31495;42.740;22.908;2023-09-19T04:28:20;7.30;;;5.10;;
45792;SDS011;31495;42.740;22.908;2023-09-19T04:29:20;9.05;;;6.82;;
45792;SDS011;31495;42.740;22.908;2023-09-19T04:30:19;10.50;;;7.93;;
45792;SDS011;31495;42.740;22.908;2023-09-19T04:31:20;14.40;;;6.97;;
45792;SDS011;31495;42.740;22.908;2023-09-19T04:32:21;8.73;;;7.03;;
45792;SDS011;31495;42.740;22.908;2023-09-19T04:33:20;11.70;;;8.10;;
45792;SDS011;31495;42.740;22.908;2023-09-19T04:34:20;12.68;;;7.93;;
45792;SDS011;31495;42.740;22.908;2023-09-19T04:35:19;10.20;;;7.78;;
45792;SDS011;31495;42.740;22.908;2023-09-19T04:36:20;11.95;;;7.55;;
45792;SDS011;31495;42.740;22.908;2023-09-19T04:37:22;13.82;;;8.20;;
45792;SDS011;31495;42.740;22.908;2023-09-19T04:38:21;16.10;;;8.23;;
45792;SDS011;31495;42.740;22.908;2023-09-19T04:39:21;10.25;;;8.32;;
45792;SDS011;31495;42.740;22.908;2023-09-19T04:40:24;11.25;;;8.57;;
45792;SDS011;31495;42.740;22.908;2023-09-19T04:41:25;12.50;;;8.77;;
45792;SDS011;31495;42.740;22.908;2023-09-19T04:42:25;11.88;;;8.50;;
45792;SDS011;31495;42.740;22.908;2023-09-19T04:43:24;10.75;;;8.52;;
45792;SDS011;31495;42.740;22.908;2023-09-19T04:44:24;10.38;;;7.90;;
45792;SDS011;31495;42.740;22.908;2023-09-19T04:45:24;10.52;;;7.75;;
45792;SDS011;31495;42.740;22.908;2023-09-19T04:46:25;19.10;;;8.48;;
45792;SDS011;31495;42.740;22.908;2023-09-19T04:47:25;10.50;;;8.45;;
45792;SDS011;31495;42.740;22.908;2023-09-19T04:48:25;10.43;;;8.48;;
45792;SDS011;31495;42.740;22.908;2023-09-19T04:49:25;9.93;;;7.20;;
45792;SDS011;31495;42.740;22.908;2023-09-19T04:50:24;8.75;;;7.32;;
45792;SDS011;31495;42.740;22.908;2023-09-19T04:51:27;11.07;;;7.38;;
45792;SDS011;31495;42.740;22.908;2023-09-19T04:52:30;9.43;;;7.13;;
45792;SDS011;31495;42.740;22.908;2023-09-19T04:53:30;11.00;;;7.65;;
45792;SDS011;31495;42.740;22.908;2023-09-19T04:54:29;11.02;;;7.47;;
45792;SDS011;31495;42.740;22.908;2023-09-19T04:55:29;12.98;;;8.02;;
45792;SDS011;31495;42.740;22.908;2023-09-19T04:56:29;10.00;;;8.60;;
45792;SDS011;31495;42.740;22.908;2023-09-19T04:57:29;11.52;;;8.18;;
45792;SDS011;31495;42.740;22.908;2023-09-19T04:58:28;15.43;;;8.50;;
45792;SDS011;31495;42.740;22.908;2023-09-19T04:59:28;12.88;;;8.32;;
45792;SDS011;31495;42.740;22.908;2023-09-19T05:00:27;11.10;;;7.63;;
45792;SDS011;31495;42.740;22.908;2023-09-19T05:01:30;15.25;;;8.80;;
45792;SDS011;31495;42.740;22.908;2023-09-19T05:02:30;13.30;;;8.55;;
45792;SDS011;31495;42.740;22.908;2023-09-19T05:03:30;9.23;;;6.90;;
45792;SDS011;31495;42.740;22.908;2023-09-19T05:04:29;11.55;;;7.20;;
45792;SDS011;31495;42.740;22.908;2023-09-19T05:05:29;13.18;;;7.13;;
45792;SDS011;31495;42.740;22.908;2023-09-19T05:06:28;10.20;;;7.07;;
45792;SDS011;31495;42.740;22.908;2023-09-19T05:07:28;10.88;;;6.68;;
45792;SDS011;31495;42.740;22.908;2023-09-19T05:08:27;11.68;;;6.10;;
45792;SDS011;31495;42.740;22.908;2023-09-19T05:09:27;9.63;;;6.68;;
45792;SDS011;31495;42.740;22.908;2023-09-19T05:10:26;12.15;;;6.53;;
45792;SDS011;31495;42.740;22.908;2023-09-19T05:11:25;10.23;;;7.75;;
45792;SDS011;31495;42.740;22.908;2023-09-19T05:12:28;9.30;;;6.75;;
45792;SDS011;31495;42.740;22.908;2023-09-19T05:13:29;11.82;;;7.82;;
45792;SDS011;31495;42.740;22.908;2023-09-19T05:14:29;13.15;;;7.90;;
45792;SDS011;31495;42.740;22.908;2023-09-19T05:15:29;15.95;;;8.38;;
45792;SDS011;31495;42.740;22.908;2023-09-19T05:16:28;16.80;;;8.75;;
45792;SDS011;31495;42.740;22.908;2023-09-19T05:17:29;15.15;;;9.70;;
45792;SDS011;31495;42.740;22.908;2023-09-19T05:18:29;19.55;;;11.23;;
45792;SDS011;31495;42.740;22.908;2023-09-19T05:19:28;16.20;;;10.02;;
45792;SDS011;31495;42.740;22.908;2023-09-19T05:20:28;19.42;;;10.77;;
45792;SDS011;31495;42.740;22.908;2023-09-19T05:21:32;21.83;;;11.30;;
45792;SDS011;31495;42.740;22.908;2023-09-19T05:22:32;20.75;;;11.57;;
45792;SDS011;31495;42.740;22.908;2023-09-19T05:23:32;17.95;;;11.75;;
45792;SDS011;31495;42.740;22.908;2023-09-19T05:24:32;19.95;;;11.23;;
45792;SDS011;31495;42.740;22.908;2023-09-19T05:25:32;20.02;;;10.32;;
45792;SDS011;31495;42.740;22.908;2023-09-19T05:26:32;13.63;;;10.00;;
45792;SDS011;31495;42.740;22.908;2023-09-19T05:27:32;16.70;;;8.82;;
45792;SDS011;31495;42.740;22.908;2023-09-19T05:28:32;19.67;;;8.25;;
45792;SDS011;31495;42.740;22.908;2023-09-19T05:29:34;15.05;;;9.65;;
45792;SDS011;31495;42.740;22.908;2023-09-19T05:30:34;12.82;;;8.02;;
45792;SDS011;31495;42.740;22.908;2023-09-19T05:31:37;11.35;;;7.53;;
45792;SDS011;31495;42.740;22.908;2023-09-19T05:32:39;14.65;;;8.35;;
45792;SDS011;31495;42.740;22.908;2023-09-19T05:33:39;12.00;;;7.78;;
45792;SDS011;31495;42.740;22.908;2023-09-19T05:34:39;14.27;;;6.80;;
45792;SDS011;31495;42.740;22.908;2023-09-19T05:35:38;15.25;;;7.53;;
45792;SDS011;31495;42.740;22.908;2023-09-19T05:36:40;8.85;;;6.22;;
45792;SDS011;31495;42.740;22.908;2023-09-19T05:37:40;12.20;;;7.15;;
45792;SDS011;31495;42.740;22.908;2023-09-19T05:38:40;10.25;;;6.97;;
45792;SDS011;31495;42.740;22.908;2023-09-19T05:39:41;11.77;;;7.80;;
45792;SDS011;31495;42.740;22.908;2023-09-19T05:40:41;11.65;;;6.97;;
45792;SDS011;31495;42.740;22.908;2023-09-19T05:41:41;15.93;;;7.13;;
45792;SDS011;31495;42.740;22.908;2023-09-19T05:42:40;13.43;;;6.90;;
45792;SDS011;31495;42.740;22.908;2023-09-19T05:43:41;10.05;;;6.45;;
45792;SDS011;31495;42.740;22.908;2023-09-19T05:44:41;11.38;;;7.70;;
45792;SDS011;31495;42.740;22.908;2023-09-19T05:45:40;11.07;;;7.45;;
45792;SDS011;31495;42.740;22.908;2023-09-19T05:46:40;22.17;;;7.18;;
45792;SDS011;31495;42.740;22.908;2023-09-19T05:47:40;10.57;;;7.68;;
45792;SDS011;31495;42.740;22.908;2023-09-19T05:48:42;10.65;;;7.00;;
45792;SDS011;31495;42.740;22.908;2023-09-19T05:49:43;10.38;;;6.85;;
45792;SDS011;31495;42.740;22.908;2023-09-19T05:50:43;10.70;;;6.97;;
45792;SDS011;31495;42.740;22.908;2023-09-19T05:51:47;11.02;;;7.40;;
45792;SDS011;31495;42.740;22.908;2023-09-19T05:52:53;12.93;;;7.32;;
45792;SDS011;31495;42.740;22.908;2023-09-19T05:53:55;13.18;;;7.13;;
45792;SDS011;31495;42.740;22.908;2023-09-19T05:54:54;11.93;;;7.45;;
45792;SDS011;31495;42.740;22.908;2023-09-19T05:55:55;10.98;;;6.80;;
45792;SDS011;31495;42.740;22.908;2023-09-19T05:56:54;11.10;;;6.38;;
45792;SDS011;31495;42.740;22.908;2023-09-19T05:57:54;11.07;;;6.43;;
45792;SDS011;31495;42.740;22.908;2023-09-19T05:58:53;6.88;;;5.18;;
45792;SDS011;31495;42.740;22.908;2023-09-19T05:59:53;10.02;;;6.85;;
45792;SDS011;31495;42.740;22.908;2023-09-19T06:00:52;11.07;;;6.85;;
45792;SDS011;31495;42.740;22.908;2023-09-19T06:01:52;15.05;;;6.90;;
45792;SDS011;31495;42.740;22.908;2023-09-19T06:02:52;8.18;;;6.47;;
45792;SDS011;31495;42.740;22.908;2023-09-19T06:03:56;15.55;;;7.75;;
45792;SDS011;31495;42.740;22.908;2023-09-19T06:04:56;10.32;;;7.38;;
45792;SDS011;31495;42.740;22.908;2023-09-19T06:05:55;10.73;;;6.95;;
45792;SDS011;31495;42.740;22.908;2023-09-19T06:06:56;9.15;;;7.50;;
45792;SDS011;31495;42.740;22.908;2023-09-19T06:07:56;8.23;;;6.68;;
45792;SDS011;31495;42.740;22.908;2023-09-19T06:08:59;8.63;;;6.60;;
45792;SDS011;31495;42.740;22.908;2023-09-19T06:09:59;12.75;;;8.45;;
45792;SDS011;31495;42.740;22.908;2023-09-19T06:10:58;11.25;;;7.40;;
45792;SDS011;31495;42.740;22.908;2023-09-19T06:11:58;9.65;;;6.97;;
45792;SDS011;31495;42.740;22.908;2023-09-19T06:13:03;11.98;;;7.38;;
45792;SDS011;31495;42.740;22.908;2023-09-19T06:14:08;9.05;;;6.30;;
45792;SDS011;31495;42.740;22.908;2023-09-19T06:15:09;9.85;;;7.20;;
45792;SDS011;31495;42.740;22.908;2023-09-19T06:16:14;12.88;;;6.90;;
45792;SDS011;31495;42.740;22.908;2023-09-19T06:17:13;9.80;;;6.93;;
45792;SDS011;31495;42.740;22.908;2023-09-19T06:18:14;9.73;;;6.82;;